Time;durP1;ratioP1;P1;durP2;ratioP2;P2;SDS_P1;SDS_P2;PMS_P1;PMS_P2;Temp;Humidity;BMP_temperature;BMP_pressure;BME280_temperature;BME280_humidity;BME280_pressure;Samples;Min_cycle;Max_cycle;Signal;HPM_P1;HPM_P2
2022/07/13 00:02:00;;;;;;;;;;;23.70;52.80;;;;;;5026780;28;19929;-81
2022/07/13 00:04:26;;;;;;;;;;;23.60;52.90;;;;;;5023988;28;19933;-82
2022/07/13 00:06:53;;;;;;;;;;;23.60;53.10;;;;;;5022078;28;19933;-81
2022/07/13 00:09:19;;;;;;;;;;;23.60;53.30;;;;;;5019921;28;19929;-82
2022/07/13 00:11:46;;;;;;;;;;;23.50;53.40;;;;;;5022986;28;19929;-81
2022/07/13 00:14:14;;;;;;;;;;;23.50;53.60;;;;;;5025287;28;19941;-82
2022/07/13 00:16:40;;;;;;;;;;;23.40;53.60;;;;;;5023758;28;19929;-82
2022/07/13 00:19:07;;;;;;;;;;;23.40;53.80;;;;;;5022762;28;19932;-82
2022/07/13 00:21:34;;;;;;;;;;;23.40;53.90;;;;;;5020546;28;19929;-81
2022/07/13 00:24:00;;;;;;;;;;;23.30;54.00;;;;;;5023716;28;19976;-82
2022/07/13 00:26:27;;;;;;;;;;;23.30;54.10;;;;;;5025207;28;20397;-82
2022/07/13 00:28:54;;;;;;;;;;;23.30;54.20;;;;;;5025285;28;19940;-82
2022/07/13 00:31:22;;;;;;;;;;;23.20;54.20;;;;;;5020646;28;19968;-82
2022/07/13 00:33:48;;;;;;;;;;;23.20;54.20;;;;;;5022630;28;19940;-82
2022/07/13 00:36:15;;;;;;;;;;;23.20;54.20;;;;;;5021116;28;19940;-82
2022/07/13 00:38:41;;;;;;;;;;;23.10;54.40;;;;;;5023203;28;19928;-82
2022/07/13 00:41:08;;;;;;;;;;;23.10;54.40;;;;;;5019466;28;19940;-81
2022/07/13 00:43:34;;;;;;;;;;;23.00;54.80;;;;;;5022281;28;19939;-82
2022/07/13 00:46:01;;;;;;;;;;;23.00;54.30;;;;;;5022661;28;20310;-81
2022/07/13 00:48:29;;;;;;;;;;;23.00;54.50;;;;;;5022102;28;19936;-81
2022/07/13 00:50:56;;;;;;;;;;;23.00;54.60;;;;;;5024886;28;19933;-81
2022/07/13 00:53:23;;;;;;;;;;;22.90;54.60;;;;;;5023480;28;19929;-81
2022/07/13 00:55:50;;;;;;;;;;;22.90;54.70;;;;;;5020578;28;20598;-81
2022/07/13 00:58:17;;;;;;;;;;;22.90;55.00;;;;;;5020647;28;19933;-81
2022/07/13 01:00:43;;;;;;;;;;;22.90;54.90;;;;;;5019100;28;20282;-81
2022/07/13 01:03:10;;;;;;;;;;;22.80;55.00;;;;;;5024049;28;20231;-81
2022/07/13 01:05:38;;;;;;;;;;;22.80;55.10;;;;;;5021338;28;20401;-81
2022/07/13 01:08:04;;;;;;;;;;;22.70;55.10;;;;;;5021159;28;19936;-81
2022/07/13 01:10:31;;;;;;;;;;;22.70;55.10;;;;;;5021123;28;20477;-83
2022/07/13 01:12:58;;;;;;;;;;;22.70;55.20;;;;;;5023311;28;19941;-81
2022/07/13 01:15:24;;;;;;;;;;;22.70;55.30;;;;;;5013632;28;19956;-82
2022/07/13 01:17:51;;;;;;;;;;;22.70;55.50;;;;;;5017686;28;19925;-82
2022/07/13 01:20:18;;;;;;;;;;;22.70;55.50;;;;;;5020663;28;19937;-82
2022/07/13 01:22:48;;;;;;;;;;;22.60;55.50;;;;;;5020841;28;19929;-81
2022/07/13 01:25:16;;;;;;;;;;;22.60;55.50;;;;;;5021095;28;19936;-82
2022/07/13 01:27:43;;;;;;;;;;;22.60;55.50;;;;;;5020862;28;20961;-82
2022/07/13 01:30:10;;;;;;;;;;;22.50;55.50;;;;;;5021765;28;20004;-81
2022/07/13 01:32:43;;;;;;;;;;;22.50;55.50;;;;;;5023127;28;19929;-81
2022/07/13 01:35:09;;;;;;;;;;;22.50;55.80;;;;;;5021260;28;19936;-82
2022/07/13 01:37:36;;;;;;;;;;;22.50;55.90;;;;;;5020797;28;19936;-81
2022/07/13 01:40:03;;;;;;;;;;;22.40;56.00;;;;;;5024459;28;19936;-82
2022/07/13 01:42:31;;;;;;;;;;;22.40;56.00;;;;;;5024633;28;19941;-81
2022/07/13 01:44:58;;;;;;;;;;;22.40;56.00;;;;;;5026761;28;19929;-80
2022/07/13 01:47:24;;;;;;;;;;;22.30;56.00;;;;;;5022983;28;19941;-82
2022/07/13 01:49:51;;;;;;;;;;;22.30;56.10;;;;;;5020873;28;19929;-82
2022/07/13 01:52:18;;;;;;;;;;;22.30;56.10;;;;;;5024342;28;19929;-81
2022/07/13 01:54:44;;;;;;;;;;;22.30;56.10;;;;;;5018102;28;19936;-82
2022/07/13 01:57:11;;;;;;;;;;;22.20;56.10;;;;;;5022879;28;19929;-82
2022/07/13 01:59:39;;;;;;;;;;;22.30;56.20;;;;;;5019606;28;19929;-81
2022/07/13 02:02:05;;;;;;;;;;;22.20;56.40;;;;;;5021945;28;20044;-81
2022/07/13 02:04:32;;;;;;;;;;;22.20;56.40;;;;;;5021723;28;19940;-82
2022/07/13 02:06:59;;;;;;;;;;;22.20;56.40;;;;;;5020074;28;19929;-82
2022/07/13 02:09:26;;;;;;;;;;;22.20;56.50;;;;;;5020816;28;20444;-81
2022/07/13 02:11:52;;;;;;;;;;;22.10;56.60;;;;;;5023152;28;20700;-82
2022/07/13 02:14:19;;;;;;;;;;;22.10;56.70;;;;;;5020827;28;19963;-82
2022/07/13 02:16:48;;;;;;;;;;;22.10;56.80;;;;;;5017446;28;19940;-80
2022/07/13 02:19:14;;;;;;;;;;;22.10;56.80;;;;;;5020772;28;19929;-83
2022/07/13 02:21:41;;;;;;;;;;;22.00;56.80;;;;;;5020609;28;19936;-82
2022/07/13 02:24:07;;;;;;;;;;;22.00;56.90;;;;;;5023560;28;19929;-82
2022/07/13 02:26:34;;;;;;;;;;;22.00;56.90;;;;;;5021594;28;19933;-82
2022/07/13 02:29:00;;;;;;;;;;;22.00;56.90;;;;;;5020813;28;19929;-82
2022/07/13 02:31:27;;;;;;;;;;;22.00;57.00;;;;;;5023241;28;19936;-81
2022/07/13 02:33:55;;;;;;;;;;;21.90;57.00;;;;;;5021410;28;19936;-82
2022/07/13 02:36:21;;;;;;;;;;;21.90;57.10;;;;;;5021059;28;19929;-81
2022/07/13 02:38:48;;;;;;;;;;;21.90;57.20;;;;;;5018574;28;19929;-81
2022/07/13 02:41:14;;;;;;;;;;;21.90;57.30;;;;;;5021105;28;19936;-81
2022/07/13 02:43:41;;;;;;;;;;;21.80;57.30;;;;;;5021965;28;19929;-82
2022/07/13 02:46:07;;;;;;;;;;;21.80;57.40;;;;;;5020330;28;19936;-81
2022/07/13 02:48:34;;;;;;;;;;;21.80;57.50;;;;;;5022792;28;20302;-83
2022/07/13 02:51:02;;;;;;;;;;;21.80;57.60;;;;;;5020268;28;20732;-81
2022/07/13 02:53:29;;;;;;;;;;;21.70;57.60;;;;;;5021831;28;20397;-81
2022/07/13 02:55:55;;;;;;;;;;;21.70;57.70;;;;;;5021309;28;19952;-81
2022/07/13 02:58:22;;;;;;;;;;;21.70;57.90;;;;;;5021326;28;19935;-82
2022/07/13 03:00:48;;;;;;;;;;;21.60;57.90;;;;;;5019865;28;19929;-82
2022/07/13 03:03:15;;;;;;;;;;;21.60;58.00;;;;;;5022954;28;19929;-81
2022/07/13 03:05:41;;;;;;;;;;;21.60;58.00;;;;;;5022506;28;19929;-81
2022/07/13 03:08:09;;;;;;;;;;;21.60;58.10;;;;;;5021649;28;19936;-81
2022/07/13 03:10:36;;;;;;;;;;;21.50;58.00;;;;;;5021285;28;19929;-83
2022/07/13 03:13:02;;;;;;;;;;;21.50;58.00;;;;;;5020328;28;19929;-81
2022/07/13 03:15:29;;;;;;;;;;;21.50;58.20;;;;;;5015494;28;19936;-83
2022/07/13 03:17:55;;;;;;;;;;;21.50;58.00;;;;;;5020519;28;20424;-82
2022/07/13 03:20:22;;;;;;;;;;;21.40;58.20;;;;;;5019922;28;20416;-83
2022/07/13 03:22:49;;;;;;;;;;;21.40;58.30;;;;;;5021227;28;19929;-82
2022/07/13 03:25:17;;;;;;;;;;;21.40;58.40;;;;;;5023521;28;19952;-82
2022/07/13 03:27:43;;;;;;;;;;;21.40;58.40;;;;;;5025391;28;20023;-83
2022/07/13 03:30:10;;;;;;;;;;;21.30;58.40;;;;;;5020802;28;19940;-82
2022/07/13 03:32:37;;;;;;;;;;;21.30;58.40;;;;;;5026203;28;19933;-82
2022/07/13 03:35:04;;;;;;;;;;;21.30;58.60;;;;;;5026822;28;20317;-82
2022/07/13 03:37:30;;;;;;;;;;;21.20;58.60;;;;;;5026920;28;19971;-82
2022/07/13 03:39:57;;;;;;;;;;;21.20;58.60;;;;;;5024260;28;19933;-80
2022/07/13 03:42:25;;;;;;;;;;;21.20;58.60;;;;;;5022267;28;19940;-82
2022/07/13 03:44:51;;;;;;;;;;;21.20;59.20;;;;;;5021356;28;19929;-81
2022/07/13 03:47:19;;;;;;;;;;;21.20;58.70;;;;;;5022936;28;20423;-82
2022/07/13 03:49:45;;;;;;;;;;;21.10;59.30;;;;;;5023199;28;20316;-81
2022/07/13 03:52:12;;;;;;;;;;;21.10;58.70;;;;;;5024074;28;19929;-82
2022/07/13 03:54:39;;;;;;;;;;;21.10;58.80;;;;;;5025161;28;19933;-81
2022/07/13 03:57:05;;;;;;;;;;;21.00;58.90;;;;;;5025017;28;19944;-81
2022/07/13 03:59:34;;;;;;;;;;;21.00;58.80;;;;;;5022011;28;19940;-82
2022/07/13 04:02:00;;;;;;;;;;;21.00;58.90;;;;;;5021327;28;19929;-81
2022/07/13 04:04:27;;;;;;;;;;;21.00;58.90;;;;;;5024654;28;20598;-82
2022/07/13 04:06:54;;;;;;;;;;;20.90;58.90;;;;;;5022883;28;20428;-82
2022/07/13 04:09:20;;;;;;;;;;;20.90;58.90;;;;;;5022299;28;19929;-82
2022/07/13 04:11:48;;;;;;;;;;;20.90;59.10;;;;;;5022420;28;20386;-82
2022/07/13 04:14:14;;;;;;;;;;;20.90;59.10;;;;;;5024254;28;20401;-82
2022/07/13 04:16:42;;;;;;;;;;;20.80;59.00;;;;;;5031809;28;19933;-81
2022/07/13 04:19:09;;;;;;;;;;;20.80;59.10;;;;;;5021250;28;19940;-81
2022/07/13 04:21:36;;;;;;;;;;;20.80;59.10;;;;;;5023746;28;19929;-82
2022/07/13 04:24:02;;;;;;;;;;;20.80;59.20;;;;;;5023602;28;19936;-82
2022/07/13 04:26:29;;;;;;;;;;;20.80;59.20;;;;;;5025965;28;19933;-81
2022/07/13 04:28:56;;;;;;;;;;;20.70;59.30;;;;;;5021334;28;19929;-81
2022/07/13 04:31:22;;;;;;;;;;;20.80;59.40;;;;;;5022579;28;19984;-83
2022/07/13 04:33:50;;;;;;;;;;;20.70;59.30;;;;;;5024622;28;19929;-83
2022/07/13 04:36:17;;;;;;;;;;;20.70;59.30;;;;;;5024550;28;20381;-81
2022/07/13 04:38:44;;;;;;;;;;;20.70;59.40;;;;;;5022338;28;19985;-81
2022/07/13 04:41:10;;;;;;;;;;;20.60;59.40;;;;;;5025567;28;19929;-82
2022/07/13 04:43:37;;;;;;;;;;;20.70;59.40;;;;;;5027725;28;19929;-81
2022/07/13 04:46:04;;;;;;;;;;;20.60;59.40;;;;;;5024429;28;19963;-81
2022/07/13 04:48:30;;;;;;;;;;;20.60;59.50;;;;;;5024190;28;20135;-82
2022/07/13 04:50:58;;;;;;;;;;;20.60;59.50;;;;;;5023631;28;19929;-81
2022/07/13 04:53:25;;;;;;;;;;;20.60;59.60;;;;;;5022650;28;19933;-81
2022/07/13 04:55:51;;;;;;;;;;;20.60;59.60;;;;;;5023617;28;19941;-80
2022/07/13 04:58:18;;;;;;;;;;;20.60;59.60;;;;;;5025375;28;19928;-81
2022/07/13 05:00:44;;;;;;;;;;;20.60;59.60;;;;;;5025543;28;19929;-80
2022/07/13 05:03:11;;;;;;;;;;;20.60;59.70;;;;;;5023668;28;19952;-81
2022/07/13 05:05:37;;;;;;;;;;;20.50;59.80;;;;;;5024213;28;19929;-82
2022/07/13 05:08:06;;;;;;;;;;;20.50;59.80;;;;;;5019620;28;19936;-81
2022/07/13 05:10:33;;;;;;;;;;;20.50;59.80;;;;;;5023745;28;19929;-81
2022/07/13 05:13:00;;;;;;;;;;;20.60;59.90;;;;;;5023620;28;19929;-80
2022/07/13 05:15:26;;;;;;;;;;;20.50;59.90;;;;;;5021243;28;19956;-80
2022/07/13 05:17:53;;;;;;;;;;;20.50;59.90;;;;;;5039529;28;19932;-80
2022/07/13 05:20:19;;;;;;;;;;;20.50;59.90;;;;;;5042860;28;20554;-81
2022/07/13 05:22:46;;;;;;;;;;;20.50;60.10;;;;;;5044303;28;19928;-81
2022/07/13 05:25:14;;;;;;;;;;;20.50;60.00;;;;;;5042135;28;19940;-82
2022/07/13 05:27:40;;;;;;;;;;;20.50;60.00;;;;;;5041822;28;20007;-81
2022/07/13 05:30:08;;;;;;;;;;;20.50;60.10;;;;;;5043943;28;19939;-81
2022/07/13 05:32:34;;;;;;;;;;;20.50;60.20;;;;;;5042991;28;19929;-81
2022/07/13 05:35:01;;;;;;;;;;;20.50;60.10;;;;;;5041606;28;19928;-82
2022/07/13 05:37:28;;;;;;;;;;;20.50;60.20;;;;;;5042994;28;19929;-81
2022/07/13 05:39:55;;;;;;;;;;;20.50;60.30;;;;;;5042138;28;19967;-81
2022/07/13 05:42:23;;;;;;;;;;;20.50;60.30;;;;;;5041523;28;19929;-80
2022/07/13 05:44:49;;;;;;;;;;;20.40;60.30;;;;;;5041621;28;19940;-80
2022/07/13 05:47:16;;;;;;;;;;;20.50;60.40;;;;;;5040744;28;19933;-81
2022/07/13 05:49:42;;;;;;;;;;;20.50;60.30;;;;;;5043824;28;19928;-80
2022/07/13 05:52:09;;;;;;;;;;;20.50;60.30;;;;;;5040393;28;19940;-81
2022/07/13 05:54:36;;;;;;;;;;;20.50;60.40;;;;;;5039736;28;20558;-81
2022/07/13 05:57:02;;;;;;;;;;;20.50;60.40;;;;;;5042173;28;19960;-81
2022/07/13 05:59:32;;;;;;;;;;;20.50;60.30;;;;;;5042249;28;19940;-81
2022/07/13 06:01:59;;;;;;;;;;;20.50;60.20;;;;;;5040768;28;20467;-81
2022/07/13 06:04:26;;;;;;;;;;;20.50;60.20;;;;;;5042275;28;20640;-81
2022/07/13 06:06:52;;;;;;;;;;;20.50;60.20;;;;;;5042646;28;20317;-80
2022/07/13 06:09:19;;;;;;;;;;;20.60;60.20;;;;;;5042361;28;19962;-80
2022/07/13 06:11:46;;;;;;;;;;;20.60;60.10;;;;;;5041343;28;20405;-79
2022/07/13 06:14:13;;;;;;;;;;;20.60;60.00;;;;;;5039298;28;19936;-80
2022/07/13 06:16:41;;;;;;;;;;;20.60;59.90;;;;;;5027746;28;19936;-80
2022/07/13 06:19:08;;;;;;;;;;;20.60;60.00;;;;;;5024441;28;19940;-80
2022/07/13 06:21:35;;;;;;;;;;;20.60;60.00;;;;;;5026071;28;19960;-80
2022/07/13 06:24:01;;;;;;;;;;;20.60;60.00;;;;;;5024442;28;19933;-80
2022/07/13 06:26:28;;;;;;;;;;;20.60;59.90;;;;;;5022719;28;19933;-80
2022/07/13 06:28:54;;;;;;;;;;;20.70;60.00;;;;;;5023515;28;19929;-80
2022/07/13 06:31:21;;;;;;;;;;;20.70;60.00;;;;;;5022014;28;19936;-79
2022/07/13 06:33:51;;;;;;;;;;;20.70;60.00;;;;;;5024198;28;19940;-81
2022/07/13 06:36:17;;;;;;;;;;;20.70;60.10;;;;;;5017722;28;19941;-79
2022/07/13 06:38:44;;;;;;;;;;;20.70;60.00;;;;;;5016869;28;19929;-80
2022/07/13 06:41:10;;;;;;;;;;;20.70;59.90;;;;;;5018154;28;19929;-80
2022/07/13 06:43:37;;;;;;;;;;;20.80;60.00;;;;;;5013508;28;19933;-79
2022/07/13 06:46:04;;;;;;;;;;;20.80;60.00;;;;;;5012319;28;19937;-81
2022/07/13 06:48:31;;;;;;;;;;;20.80;60.20;;;;;;5011303;28;21005;-81
2022/07/13 06:50:58;;;;;;;;;;;20.80;60.40;;;;;;5013589;28;19936;-80
2022/07/13 06:53:25;;;;;;;;;;;20.80;60.30;;;;;;5013485;28;19933;-80
2022/07/13 06:55:52;;;;;;;;;;;20.90;60.30;;;;;;5012767;28;19969;-80
2022/07/13 06:58:18;;;;;;;;;;;20.90;60.30;;;;;;5014135;28;20305;-80
2022/07/13 07:00:45;;;;;;;;;;;20.90;60.30;;;;;;5021476;28;19929;-81
2022/07/13 07:03:11;;;;;;;;;;;21.00;60.20;;;;;;5023995;28;19936;-80
2022/07/13 07:05:38;;;;;;;;;;;21.00;60.00;;;;;;5026212;28;19936;-80
2022/07/13 07:08:06;;;;;;;;;;;21.00;60.50;;;;;;5026330;28;19929;-80
2022/07/13 07:10:33;;;;;;;;;;;21.10;59.90;;;;;;5031005;28;20333;-80
2022/07/13 07:12:59;;;;;;;;;;;21.10;59.90;;;;;;5026322;28;19940;-80
2022/07/13 07:15:26;;;;;;;;;;;21.10;59.80;;;;;;5025195;28;19929;-80
2022/07/13 07:17:52;;;;;;;;;;;21.10;59.90;;;;;;5025752;28;19929;-80
2022/07/13 07:20:19;;;;;;;;;;;21.10;60.00;;;;;;5025056;28;20515;-80
2022/07/13 07:22:46;;;;;;;;;;;21.20;60.00;;;;;;5016342;28;20662;-80
2022/07/13 07:25:15;;;;;;;;;;;21.20;60.20;;;;;;5020337;28;19929;-80
2022/07/13 07:27:42;;;;;;;;;;;21.30;60.40;;;;;;5027167;28;20448;-80
2022/07/13 07:30:09;;;;;;;;;;;21.30;60.10;;;;;;5023012;28;20458;-80
2022/07/13 07:32:35;;;;;;;;;;;21.30;60.30;;;;;;5024016;28;20395;-80
2022/07/13 07:35:02;;;;;;;;;;;21.30;60.00;;;;;;5023433;28;19933;-80
2022/07/13 07:37:28;;;;;;;;;;;21.40;59.80;;;;;;5024012;28;19945;-80
2022/07/13 07:39:55;;;;;;;;;;;21.40;59.70;;;;;;5019445;28;19977;-80
2022/07/13 07:42:23;;;;;;;;;;;21.40;59.60;;;;;;5024468;28;19933;-79
2022/07/13 07:44:50;;;;;;;;;;;21.50;59.50;;;;;;5026109;28;19929;-81
2022/07/13 07:47:16;;;;;;;;;;;21.50;59.50;;;;;;5022205;28;19929;-80
2022/07/13 07:49:43;;;;;;;;;;;21.50;59.40;;;;;;5021883;28;19933;-79
2022/07/13 07:52:10;;;;;;;;;;;21.60;59.30;;;;;;5024509;28;19929;-79
2022/07/13 07:54:37;;;;;;;;;;;21.60;59.20;;;;;;5026583;28;19928;-79
2022/07/13 07:57:03;;;;;;;;;;;21.70;59.20;;;;;;5022355;28;19929;-79
2022/07/13 07:59:31;;;;;;;;;;;21.70;59.20;;;;;;5021119;28;19944;-79
2022/07/13 08:01:59;;;;;;;;;;;21.70;59.10;;;;;;5034413;28;19935;-79
2022/07/13 08:04:25;;;;;;;;;;;21.80;59.10;;;;;;5044911;28;19929;-80
2022/07/13 08:06:52;;;;;;;;;;;21.80;59.00;;;;;;5041813;28;19937;-79
2022/07/13 08:09:18;;;;;;;;;;;21.90;59.00;;;;;;5043112;28;19941;-80
2022/07/13 08:11:45;;;;;;;;;;;21.90;59.00;;;;;;5042300;28;19929;-79
2022/07/13 08:14:12;;;;;;;;;;;21.90;59.00;;;;;;5044343;28;19932;-80
2022/07/13 08:16:40;;;;;;;;;;;22.00;59.00;;;;;;5029338;28;19976;-79
2022/07/13 08:19:07;;;;;;;;;;;22.00;58.90;;;;;;5019445;28;19929;-79
2022/07/13 08:21:34;;;;;;;;;;;22.00;58.80;;;;;;5022864;28;19933;-80
2022/07/13 08:24:00;;;;;;;;;;;22.10;58.80;;;;;;5020483;28;19929;-79
2022/07/13 08:26:27;;;;;;;;;;;22.10;58.70;;;;;;5021932;28;19929;-79
2022/07/13 08:28:54;;;;;;;;;;;22.20;58.60;;;;;;5020740;28;19937;-80
2022/07/13 08:31:22;;;;;;;;;;;22.20;58.40;;;;;;5020805;28;19937;-80
2022/07/13 08:39:18;;;;;;;;;;;22.30;58.20;;;;;;5015515;28;19936;-80
2022/07/13 08:41:45;;;;;;;;;;;22.30;58.20;;;;;;5020887;28;19936;-79
2022/07/13 08:44:12;;;;;;;;;;;22.40;58.20;;;;;;5020502;28;19933;-79
2022/07/13 08:46:39;;;;;;;;;;;22.40;58.10;;;;;;5034327;28;20759;-80
2022/07/13 08:49:07;;;;;;;;;;;22.40;58.10;;;;;;5041997;28;19929;-80
2022/07/13 08:51:34;;;;;;;;;;;22.40;57.90;;;;;;5041681;28;19940;-80
2022/07/13 08:54:01;;;;;;;;;;;22.50;57.90;;;;;;5045434;28;20020;-80
2022/07/13 08:56:28;;;;;;;;;;;22.50;57.90;;;;;;5044544;28;21149;-79
2022/07/13 08:58:54;;;;;;;;;;;22.60;57.80;;;;;;5040685;28;19937;-79
2022/07/13 09:01:21;;;;;;;;;;;22.60;57.70;;;;;;5039418;28;20829;-80
2022/07/13 09:03:48;;;;;;;;;;;22.70;58.20;;;;;;5047950;28;19929;-80
2022/07/13 09:06:29;;;;;;;;;;;22.70;57.40;;;;;;5042551;28;20551;-79
2022/07/13 09:08:57;;;;;;;;;;;22.70;57.30;;;;;;5041068;28;19936;-79
2022/07/13 09:11:24;;;;;;;;;;;22.70;57.30;;;;;;5037657;28;19929;-79
2022/07/13 09:13:50;;;;;;;;;;;22.90;57.30;;;;;;5042284;28;19979;-79
2022/07/13 09:16:18;;;;;;;;;;;22.90;57.10;;;;;;5041580;28;19933;-79
2022/07/13 09:18:45;;;;;;;;;;;22.90;56.90;;;;;;5040871;28;19932;-79
2022/07/13 09:21:12;;;;;;;;;;;23.00;56.50;;;;;;5038604;28;19935;-79
2022/07/13 09:23:39;;;;;;;;;;;23.00;56.10;;;;;;5044880;28;19933;-80
2022/07/13 09:26:07;;;;;;;;;;;23.10;56.00;;;;;;5038909;28;19935;-79
2022/07/13 09:28:44;;;;;;;;;;;23.10;55.90;;;;;;5035462;28;19933;-79
2022/07/13 09:31:11;;;;;;;;;;;23.10;55.90;;;;;;5047809;28;19966;-79
2022/07/13 09:33:38;;;;;;;;;;;23.20;55.70;;;;;;5050706;22;19934;-78
2022/07/13 09:36:12;;;;;;;;;;;23.30;55.60;;;;;;5008070;28;19929;-76
2022/07/13 09:38:39;;;;;;;;;;;23.30;55.40;;;;;;5015905;28;19940;-77
2022/07/13 09:41:23;;;;;;;;;;;23.40;55.20;;;;;;4988617;28;19959;-77
2022/07/13 09:46:38;;;;;;;;;;;23.50;54.80;;;;;;4992915;28;20012;-78
2022/07/13 09:49:05;;;;;;;;;;;23.60;54.80;;;;;;4992924;28;20740;-77
2022/07/13 09:51:32;;;;;;;;;;;23.70;54.90;;;;;;4987305;28;20059;-77
2022/07/13 09:54:00;;;;;;;;;;;23.70;54.00;;;;;;4994416;28;19930;-77
2022/07/13 09:56:29;;;;;;;;;;;23.80;53.60;;;;;;4989587;28;19930;-77
2022/07/13 09:58:58;;;;;;;;;;;23.90;52.90;;;;;;4985146;28;19936;-77
2022/07/13 10:01:25;;;;;;;;;;;24.00;53.20;;;;;;4984100;28;20456;-77
2022/07/13 10:03:52;;;;;;;;;;;24.10;53.00;;;;;;4985690;28;19933;-78
2022/07/13 10:06:20;;;;;;;;;;;24.20;53.00;;;;;;4985948;28;19930;-77
2022/07/13 10:08:46;;;;;;;;;;;24.20;53.10;;;;;;4984568;28;19937;-77
2022/07/13 10:11:14;;;;;;;;;;;24.20;53.10;;;;;;4987953;28;19936;-78
2022/07/13 10:13:44;;;;;;;;;;;24.30;52.60;;;;;;4990667;28;19936;-78
2022/07/13 10:16:10;;;;;;;;;;;24.40;52.30;;;;;;4987884;28;19933;-78
2022/07/13 10:18:39;;;;;;;;;;;24.50;52.50;;;;;;4985821;28;19935;-78
2022/07/13 10:21:11;;;;;;;;;;;24.60;52.60;;;;;;4979192;28;19961;-78
2022/07/13 10:23:39;;;;;;;;;;;24.70;51.40;;;;;;4983526;28;19930;-77
2022/07/13 10:26:18;;;;;;;;;;;24.80;51.50;;;;;;4985524;28;19940;-78
2022/07/13 10:29:00;;;;;;;;;;;24.80;51.30;;;;;;4985156;28;19936;-78
2022/07/13 10:31:27;;;;;;;;;;;24.90;50.70;;;;;;4983976;28;19959;-78
2022/07/13 10:33:54;;;;;;;;;;;25.10;50.70;;;;;;4986152;28;19929;-78
2022/07/13 10:36:35;;;;;;;;;;;25.10;50.80;;;;;;4983670;28;19938;-78
2022/07/13 10:39:10;;;;;;;;;;;25.20;50.80;;;;;;4981788;28;20405;-78
2022/07/13 10:41:55;;;;;;;;;;;25.30;50.50;;;;;;4984536;28;19930;-78
2022/07/13 10:44:37;;;;;;;;;;;25.40;50.60;;;;;;4982708;28;21318;-77
2022/07/13 10:47:04;;;;;;;;;;;25.50;49.60;;;;;;4977965;28;19929;-78
2022/07/13 10:49:35;;;;;;;;;;;25.60;49.30;;;;;;4981591;28;19936;-78
2022/07/13 10:52:20;;;;;;;;;;;25.70;49.20;;;;;;4985157;28;20600;-77
2022/07/13 10:55:02;;;;;;;;;;;25.70;48.40;;;;;;4983093;28;19929;-78
2022/07/13 10:57:28;;;;;;;;;;;25.80;47.60;;;;;;4978237;28;19929;-78
2022/07/13 11:00:00;;;;;;;;;;;25.90;48.10;;;;;;4977360;28;19930;-79
2022/07/13 11:02:43;;;;;;;;;;;26.00;48.10;;;;;;4978665;28;19933;-79
2022/07/13 11:05:10;;;;;;;;;;;26.10;48.60;;;;;;4977311;28;19969;-78
2022/07/13 11:07:40;;;;;;;;;;;26.20;48.60;;;;;;4984434;28;19929;-78
2022/07/13 11:10:15;;;;;;;;;;;26.30;48.10;;;;;;4983047;28;20035;-77
2022/07/13 11:12:54;;;;;;;;;;;26.40;47.70;;;;;;4976046;28;19936;-77
2022/07/13 11:15:23;;;;;;;;;;;26.50;47.70;;;;;;4978460;28;19936;-77
2022/07/13 11:17:52;;;;;;;;;;;26.60;47.90;;;;;;4983352;28;20481;-79
2022/07/13 11:20:18;;;;;;;;;;;26.60;47.60;;;;;;4987609;28;19929;-79
2022/07/13 11:25:43;;;;;;;;;;;26.80;46.30;;;;;;4991151;28;20314;-78
2022/07/13 11:28:25;;;;;;;;;;;26.90;46.70;;;;;;4985448;28;19936;-78
2022/07/13 11:30:55;;;;;;;;;;;27.00;46.90;;;;;;4990875;28;19929;-78
2022/07/13 11:33:22;;;;;;;;;;;27.10;46.50;;;;;;4986896;28;19941;-77
2022/07/13 11:35:48;;;;;;;;;;;27.20;46.30;;;;;;4992589;28;19937;-78
2022/07/13 11:38:16;;;;;;;;;;;27.30;45.50;;;;;;4984653;28;19936;-77
2022/07/13 11:40:43;;;;;;;;;;;27.30;45.30;;;;;;4985271;28;19949;-77
2022/07/13 11:43:10;;;;;;;;;;;27.40;43.90;;;;;;4982803;28;19937;-76
2022/07/13 11:45:39;;;;;;;;;;;27.40;44.30;;;;;;4976559;28;20400;-76
2022/07/13 11:48:12;;;;;;;;;;;27.50;44.60;;;;;;4984787;28;19933;-76
2022/07/13 11:50:39;;;;;;;;;;;27.60;44.90;;;;;;4991905;28;19966;-74
2022/07/13 11:53:06;;;;;;;;;;;27.70;44.80;;;;;;4988676;28;19937;-74
2022/07/13 11:55:32;;;;;;;;;;;27.70;44.50;;;;;;4982795;28;19973;-74
2022/07/13 11:57:59;;;;;;;;;;;27.80;43.70;;;;;;4985473;28;19930;-74
2022/07/13 12:00:26;;;;;;;;;;;27.90;44.20;;;;;;4987653;28;19937;-74
2022/07/13 12:02:52;;;;;;;;;;;27.90;44.30;;;;;;4987936;28;19934;-74
2022/07/13 12:05:24;;;;;;;;;;;28.00;44.40;;;;;;4987902;28;19937;-74
2022/07/13 12:08:00;;;;;;;;;;;28.10;44.20;;;;;;4987027;28;19930;-74
2022/07/13 12:10:27;;;;;;;;;;;28.10;43.80;;;;;;4985161;28;19938;-74
2022/07/13 12:12:54;;;;;;;;;;;28.20;43.70;;;;;;4988370;28;19941;-74
2022/07/13 12:15:21;;;;;;;;;;;28.30;43.70;;;;;;4983957;28;19934;-74
2022/07/13 12:17:48;;;;;;;;;;;28.30;43.60;;;;;;4987028;28;19934;-74
2022/07/13 12:20:16;;;;;;;;;;;28.40;43.50;;;;;;4986593;28;19972;-74
2022/07/13 12:22:51;;;;;;;;;;;28.40;43.10;;;;;;4976113;28;19934;-74
2022/07/13 12:25:24;;;;;;;;;;;28.50;42.50;;;;;;4977487;28;19934;-77
2022/07/13 12:27:51;;;;;;;;;;;28.50;42.60;;;;;;4978358;28;19969;-76
2022/07/13 12:30:18;;;;;;;;;;;28.60;42.80;;;;;;4979159;28;19940;-77
2022/07/13 12:32:58;;;;;;;;;;;28.60;42.70;;;;;;4975278;28;19934;-75
2022/07/13 12:35:25;;;;;;;;;;;28.70;42.80;;;;;;4982893;28;19934;-75
2022/07/13 12:37:53;;;;;;;;;;;28.80;42.70;;;;;;4987703;28;20518;-77
2022/07/13 12:40:39;;;;;;;;;;;28.80;42.20;;;;;;4981342;28;19940;-76
2022/07/13 12:43:06;;;;;;;;;;;28.80;41.20;;;;;;4988201;28;19929;-77
2022/07/13 12:45:34;;;;;;;;;;;28.90;41.30;;;;;;4985995;28;20167;-78
2022/07/13 12:48:00;;;;;;;;;;;28.90;41.80;;;;;;4987922;28;19930;-75
2022/07/13 12:50:27;;;;;;;;;;;28.90;41.80;;;;;;4981448;28;19933;-79
2022/07/13 12:52:59;;;;;;;;;;;29.00;41.70;;;;;;4985444;28;19934;-78
2022/07/13 12:55:26;;;;;;;;;;;29.00;41.40;;;;;;4982912;28;19937;-78
2022/07/13 12:57:53;;;;;;;;;;;29.00;41.60;;;;;;4985675;28;20164;-78
2022/07/13 13:00:23;;;;;;;;;;;29.10;41.60;;;;;;4984715;28;19930;-78
2022/07/13 13:02:49;;;;;;;;;;;29.10;41.60;;;;;;4983012;28;19929;-79
2022/07/13 13:05:16;;;;;;;;;;;29.10;41.70;;;;;;4982581;28;20295;-78
2022/07/13 13:07:43;;;;;;;;;;;29.10;41.60;;;;;;4987989;28;20429;-77
2022/07/13 13:10:11;;;;;;;;;;;29.10;41.70;;;;;;4993659;28;19929;-77
2022/07/13 13:12:38;;;;;;;;;;;29.20;41.70;;;;;;4987297;28;19984;-76
2022/07/13 13:15:05;;;;;;;;;;;29.20;41.90;;;;;;4988056;28;20013;-75
2022/07/13 13:17:31;;;;;;;;;;;29.20;42.20;;;;;;4984321;28;19945;-76
2022/07/13 13:19:58;;;;;;;;;;;29.20;42.10;;;;;;4985251;28;19937;-75
2022/07/13 13:22:24;;;;;;;;;;;29.30;42.10;;;;;;4981320;28;19930;-77
2022/07/13 13:24:51;;;;;;;;;;;29.30;42.10;;;;;;4986864;28;19937;-77
2022/07/13 13:27:19;;;;;;;;;;;29.30;42.20;;;;;;4985622;28;19937;-76
2022/07/13 13:32:30;;;;;;;;;;;29.40;42.30;;;;;;4982521;28;19964;-76
2022/07/13 13:34:57;;;;;;;;;;;29.40;41.30;;;;;;4972482;28;19934;-76
2022/07/13 13:37:24;;;;;;;;;;;29.40;41.10;;;;;;4972095;28;19926;-76
2022/07/13 13:39:51;;;;;;;;;;;29.40;41.00;;;;;;4975512;28;19934;-76
2022/07/13 13:42:18;;;;;;;;;;;29.40;41.20;;;;;;4977110;28;19938;-76
2022/07/13 13:44:45;;;;;;;;;;;29.40;41.00;;;;;;4979873;28;19941;-77
2022/07/13 13:47:12;;;;;;;;;;;29.50;41.10;;;;;;4982608;28;19930;-73
2022/07/13 13:49:38;;;;;;;;;;;29.50;41.00;;;;;;4980153;28;19937;-73
2022/07/13 13:52:05;;;;;;;;;;;29.40;40.90;;;;;;4984300;28;20012;-73
2022/07/13 13:54:31;;;;;;;;;;;29.50;40.90;;;;;;4985449;28;19934;-73
2022/07/13 13:56:58;;;;;;;;;;;29.50;40.80;;;;;;4981419;28;21356;-73
2022/07/13 13:59:26;;;;;;;;;;;29.50;41.00;;;;;;4982552;28;20311;-73
2022/07/13 14:01:52;;;;;;;;;;;29.50;40.90;;;;;;4983617;28;20287;-73
2022/07/13 14:04:19;;;;;;;;;;;29.50;40.80;;;;;;4984011;28;19930;-73
2022/07/13 14:06:46;;;;;;;;;;;29.50;40.70;;;;;;4985287;28;19929;-73
2022/07/13 14:09:13;;;;;;;;;;;29.50;40.50;;;;;;4982327;28;20376;-73
2022/07/13 14:11:40;;;;;;;;;;;29.50;40.50;;;;;;4984156;28;19937;-73
2022/07/13 14:14:06;;;;;;;;;;;29.50;40.70;;;;;;4982622;28;19936;-73
2022/07/13 14:16:34;;;;;;;;;;;29.50;40.70;;;;;;4982462;28;19930;-73
2022/07/13 14:19:01;;;;;;;;;;;29.50;40.70;;;;;;4979499;28;19929;-73
2022/07/13 14:21:27;;;;;;;;;;;29.50;40.70;;;;;;4978350;28;19930;-73
2022/07/13 14:23:54;;;;;;;;;;;29.50;40.90;;;;;;4974307;28;19938;-72
2022/07/13 14:26:20;;;;;;;;;;;29.50;41.10;;;;;;4977070;28;19934;-72
2022/07/13 14:28:47;;;;;;;;;;;29.50;41.70;;;;;;4984760;28;19933;-73
2022/07/13 14:31:13;;;;;;;;;;;29.50;41.70;;;;;;4983979;28;19930;-73
2022/07/13 14:33:41;;;;;;;;;;;29.50;42.00;;;;;;4984453;28;19964;-73